UR93377 VTBL-VDKT
Flight info
| Callsign | UR93377 |
|---|---|
| Flight time | N/A |
| Altitude | 29000 |
| Route | VTBL K0553F290 ANKOS DOSBU ANREN OMURO ISVOD EPKAP VIBUN VDKT |
| Aircraft | TBM9/L-SDGRSWY/C |
Departure
| Time | 2026-04-18 23:52 |
|---|---|
| Airport | Khok Kathiam Airport (VTBL) |
Arrival
| Time | N/A |
|---|---|
| Airport | VDKT |
| Time | Latitude | Longitude | Altitude | Speed | Heading |
|---|---|---|---|---|---|
| 2026-04-18 23:41 | 14.87892 | 100.65867 | 119 ft | 0 kts | 70° |
| 2026-04-18 23:48 | 14.87970 | 100.65840 | 122 ft | 19 kts | 33° |
| 2026-04-18 23:48 | 14.88044 | 100.65894 | 121 ft | 16 kts | 342° |
| 2026-04-18 23:48 | 14.88153 | 100.65845 | 122 ft | 17 kts | 340° |
| 2026-04-18 23:48 | 14.88241 | 100.65812 | 122 ft | 17 kts | 340° |
| 2026-04-18 23:49 | 14.88334 | 100.65842 | 120 ft | 15 kts | 82° |
| 2026-04-18 23:49 | 14.88359 | 100.65937 | 121 ft | 6 kts | 68° |
| 2026-04-18 23:49 | 14.88359 | 100.65938 | 121 ft | 0 kts | 68° |
| 2026-04-18 23:50 | 14.88367 | 100.65959 | 121 ft | 14 kts | 67° |
| 2026-04-18 23:50 | 14.88327 | 100.66035 | 122 ft | 16 kts | 160° |
| 2026-04-18 23:51 | 14.88268 | 100.66055 | 119 ft | 0 kts | 162° |
| 2026-04-18 23:51 | 14.88248 | 100.66061 | 121 ft | 20 kts | 163° |
| 2026-04-18 23:52 | 14.87918 | 100.66179 | 120 ft | 79 kts | 166° |
| 2026-04-18 23:52 | 14.87280 | 100.66438 | 287 ft | 104 kts | 155° |
| 2026-04-18 23:52 | 14.86697 | 100.66843 | 680 ft | 120 kts | 136° |
| 2026-04-18 23:52 | 14.86091 | 100.67558 | 814 ft | 146 kts | 136° |
| 2026-04-18 23:53 | 14.85350 | 100.68253 | 1423 ft | 137 kts | 143° |
| 2026-04-18 23:53 | 14.84641 | 100.68823 | 1993 ft | 138 kts | 146° |
| 2026-04-18 23:53 | 14.83859 | 100.69445 | 2516 ft | 143 kts | 146° |
| 2026-04-18 23:53 | 14.83041 | 100.70097 | 2909 ft | 158 kts | 146° |
| 2026-04-18 23:54 | 14.82136 | 100.70821 | 3258 ft | 172 kts | 146° |
| 2026-04-18 23:54 | 14.81162 | 100.71610 | 3615 ft | 183 kts | 145° |
| 2026-04-18 23:54 | 14.80213 | 100.72380 | 3966 ft | 191 kts | 145° |
| 2026-04-18 23:54 | 14.79090 | 100.73284 | 4342 ft | 198 kts | 145° |
| 2026-04-18 23:55 | 14.78021 | 100.74147 | 4700 ft | 203 kts | 145° |
| 2026-04-18 23:55 | 14.76894 | 100.75055 | 5065 ft | 207 kts | 144° |
| 2026-04-18 23:55 | 14.75796 | 100.75939 | 5407 ft | 209 kts | 144° |
| 2026-04-18 23:55 | 14.74635 | 100.76875 | 5781 ft | 212 kts | 144° |
| 2026-04-18 23:56 | 14.73494 | 100.77798 | 6145 ft | 214 kts | 144° |
| 2026-04-18 23:56 | 14.72316 | 100.78750 | 6494 ft | 216 kts | 144° |
| 2026-04-18 23:56 | 14.71160 | 100.79682 | 6826 ft | 218 kts | 144° |
| 2026-04-18 23:56 | 14.69959 | 100.80650 | 7183 ft | 220 kts | 144° |
| 2026-04-18 23:57 | 14.68783 | 100.81597 | 7527 ft | 221 kts | 144° |
| 2026-04-18 23:57 | 14.67567 | 100.82573 | 7888 ft | 222 kts | 143° |
| 2026-04-18 23:57 | 14.66384 | 100.83524 | 8240 ft | 223 kts | 143° |
| 2026-04-18 23:57 | 14.65160 | 100.84513 | 8605 ft | 223 kts | 143° |
| 2026-04-18 23:58 | 14.63968 | 100.85474 | 8964 ft | 224 kts | 142° |
| 2026-04-18 23:58 | 14.62735 | 100.86466 | 9343 ft | 224 kts | 142° |
| 2026-04-18 23:58 | 14.61536 | 100.87431 | 9709 ft | 225 kts | 142° |
| 2026-04-18 23:58 | 14.60302 | 100.88426 | 10051 ft | 226 kts | 142° |
| 2026-04-18 23:59 | 14.59099 | 100.89396 | 10389 ft | 226 kts | 142° |
| 2026-04-18 23:59 | 14.57873 | 100.90384 | 10734 ft | 227 kts | 142° |
| 2026-04-18 23:59 | 14.56645 | 100.91373 | 11080 ft | 228 kts | 141° |
| 2026-04-18 23:59 | 14.55397 | 100.92378 | 11439 ft | 228 kts | 141° |
| 2026-04-19 00:00 | 14.54171 | 100.93364 | 11791 ft | 229 kts | 141° |
| 2026-04-19 00:00 | 14.52913 | 100.94376 | 12157 ft | 229 kts | 141° |
| 2026-04-19 00:00 | 14.51686 | 100.95364 | 12512 ft | 230 kts | 141° |
| 2026-04-19 00:00 | 14.50422 | 100.96381 | 12887 ft | 231 kts | 141° |
| 2026-04-19 00:01 | 14.49183 | 100.97378 | 13254 ft | 232 kts | 141° |
| 2026-04-19 00:01 | 14.47909 | 100.98403 | 13633 ft | 232 kts | 141° |
| 2026-04-19 00:01 | 14.46658 | 100.99408 | 13970 ft | 233 kts | 141° |
| 2026-04-19 00:01 | 14.45376 | 101.00438 | 14309 ft | 234 kts | 141° |
| 2026-04-19 00:02 | 14.44298 | 101.01305 | 14596 ft | 234 kts | 141° |
| 2026-04-19 00:02 | 14.43027 | 101.02327 | 14940 ft | 235 kts | 141° |
| 2026-04-19 00:02 | 14.41818 | 101.03299 | 15266 ft | 236 kts | 141° |
| 2026-04-19 00:02 | 14.40518 | 101.04342 | 15623 ft | 237 kts | 141° |
| 2026-04-19 00:03 | 14.39262 | 101.05351 | 15969 ft | 238 kts | 141° |
| 2026-04-19 00:03 | 14.38008 | 101.06359 | 16318 ft | 239 kts | 141° |
| 2026-04-19 00:03 | 14.36697 | 101.07412 | 16686 ft | 240 kts | 141° |
| 2026-04-19 00:03 | 14.35435 | 101.08427 | 17038 ft | 241 kts | 140° |
| 2026-04-19 00:04 | 14.34092 | 101.09504 | 17428 ft | 241 kts | 140° |
| 2026-04-19 00:04 | 14.32745 | 101.10585 | 17803 ft | 242 kts | 140° |
| 2026-04-19 00:04 | 14.31448 | 101.11627 | 18171 ft | 243 kts | 140° |
| 2026-04-19 00:04 | 14.30109 | 101.12702 | 18503 ft | 244 kts | 140° |
| 2026-04-19 00:05 | 14.28810 | 101.13745 | 18827 ft | 244 kts | 140° |
| 2026-04-19 00:05 | 14.27478 | 101.14812 | 19158 ft | 245 kts | 140° |
| 2026-04-19 00:05 | 14.26182 | 101.15852 | 19491 ft | 246 kts | 140° |
| 2026-04-19 00:05 | 14.24828 | 101.16939 | 19835 ft | 246 kts | 140° |
| 2026-04-19 00:06 | 14.23516 | 101.17992 | 20173 ft | 247 kts | 140° |
| 2026-04-19 00:06 | 14.22164 | 101.19075 | 20524 ft | 247 kts | 140° |
| 2026-04-19 00:06 | 14.20844 | 101.20132 | 20868 ft | 247 kts | 140° |
| 2026-04-19 00:06 | 14.19483 | 101.21222 | 21227 ft | 248 kts | 140° |
| 2026-04-19 00:07 | 14.18156 | 101.22287 | 21581 ft | 248 kts | 140° |
| 2026-04-19 00:07 | 14.16810 | 101.23366 | 21949 ft | 248 kts | 140° |
| 2026-04-19 00:07 | 14.15486 | 101.24428 | 22307 ft | 249 kts | 140° |
| 2026-04-19 00:07 | 14.14562 | 101.25167 | 22564 ft | 249 kts | 140° |
| 2026-04-19 00:08 | 14.12782 | 101.26591 | 23059 ft | 249 kts | 140° |
| 2026-04-19 00:08 | 14.11411 | 101.27689 | 23444 ft | 250 kts | 140° |
| 2026-04-19 00:08 | 14.10488 | 101.28429 | 23663 ft | 250 kts | 140° |
| 2026-04-19 00:08 | 14.09150 | 101.29501 | 23975 ft | 250 kts | 140° |
| 2026-04-19 00:09 | 14.07776 | 101.30600 | 24299 ft | 250 kts | 140° |
| 2026-04-19 00:09 | 14.06410 | 101.31693 | 24625 ft | 251 kts | 140° |
| 2026-04-19 00:09 | 14.05049 | 101.32782 | 24957 ft | 251 kts | 140° |
| 2026-04-19 00:09 | 14.03772 | 101.33804 | 25267 ft | 252 kts | 140° |
| 2026-04-19 00:10 | 14.02314 | 101.34971 | 25632 ft | 252 kts | 140° |
| 2026-04-19 00:10 | 14.00964 | 101.36051 | 25962 ft | 252 kts | 140° |
| 2026-04-19 00:10 | 13.99577 | 101.37160 | 26312 ft | 253 kts | 140° |
| 2026-04-19 00:10 | 13.98223 | 101.38242 | 26656 ft | 253 kts | 140° |
| 2026-04-19 00:11 | 13.96833 | 101.39353 | 27015 ft | 253 kts | 140° |
| 2026-04-19 00:11 | 13.95490 | 101.40428 | 27362 ft | 253 kts | 140° |
| 2026-04-19 00:11 | 13.94115 | 101.41527 | 27725 ft | 252 kts | 140° |
| 2026-04-19 00:11 | 13.92751 | 101.42616 | 28091 ft | 252 kts | 140° |
| 2026-04-19 00:12 | 13.91369 | 101.43720 | 28465 ft | 251 kts | 140° |
| 2026-04-19 00:12 | 13.90092 | 101.44865 | 28827 ft | 249 kts | 130° |
| 2026-04-19 00:12 | 13.89054 | 101.46331 | 28871 ft | 259 kts | 115° |
| 2026-04-19 00:12 | 13.88447 | 101.48060 | 28889 ft | 268 kts | 99° |
| 2026-04-19 00:13 | 13.88226 | 101.49971 | 28886 ft | 276 kts | 87° |
| 2026-04-19 00:13 | 13.88241 | 101.51884 | 28886 ft | 284 kts | 85° |
| 2026-04-19 00:13 | 13.88261 | 101.53971 | 28887 ft | 293 kts | 87° |
| 2026-04-19 00:13 | 13.88222 | 101.56031 | 28884 ft | 299 kts | 89° |
| 2026-04-19 00:14 | 13.88154 | 101.58193 | 28888 ft | 305 kts | 89° |
| 2026-04-19 00:14 | 13.88088 | 101.62105 | 28886 ft | 311 kts | 87° |
| 2026-04-19 00:15 | 13.88050 | 101.66527 | 28890 ft | 316 kts | 88° |
| 2026-04-19 00:15 | 13.87965 | 101.70946 | 28890 ft | 319 kts | 88° |
| 2026-04-19 00:16 | 13.87905 | 101.75515 | 28888 ft | 320 kts | 88° |
| 2026-04-19 00:16 | 13.87839 | 101.80031 | 28894 ft | 322 kts | 88° |
| 2026-04-19 00:17 | 13.87763 | 101.84524 | 28892 ft | 322 kts | 88° |
| 2026-04-19 00:17 | 13.87702 | 101.89022 | 28890 ft | 322 kts | 88° |
| 2026-04-19 00:18 | 13.87627 | 101.93557 | 28893 ft | 323 kts | 88° |
| 2026-04-19 00:18 | 13.87554 | 101.98105 | 28892 ft | 323 kts | 88° |
| 2026-04-19 00:19 | 13.87485 | 102.02822 | 28893 ft | 323 kts | 88° |
| 2026-04-19 00:19 | 13.87407 | 102.07336 | 28893 ft | 323 kts | 88° |
| 2026-04-19 00:20 | 13.87335 | 102.11887 | 28893 ft | 323 kts | 88° |
| 2026-04-19 00:20 | 13.87265 | 102.16240 | 28894 ft | 323 kts | 88° |
| 2026-04-19 00:21 | 13.87185 | 102.20829 | 28892 ft | 322 kts | 88° |
| 2026-04-19 00:21 | 13.87111 | 102.25372 | 28894 ft | 322 kts | 88° |
| 2026-04-19 00:22 | 13.87035 | 102.29903 | 28892 ft | 322 kts | 88° |
| 2026-04-19 00:22 | 13.86953 | 102.34409 | 28895 ft | 322 kts | 88° |
| 2026-04-19 00:23 | 13.86878 | 102.38946 | 28895 ft | 322 kts | 88° |
| 2026-04-19 00:23 | 13.86797 | 102.43487 | 28892 ft | 322 kts | 88° |
| 2026-04-19 00:24 | 13.86714 | 102.48014 | 28892 ft | 322 kts | 88° |
| 2026-04-19 00:24 | 13.86637 | 102.52548 | 28893 ft | 322 kts | 88° |
| 2026-04-19 00:25 | 13.86552 | 102.57093 | 28889 ft | 323 kts | 88° |
| 2026-04-19 00:25 | 13.86469 | 102.61612 | 28889 ft | 323 kts | 88° |
| 2026-04-19 00:26 | 13.86389 | 102.66092 | 28885 ft | 323 kts | 88° |
| 2026-04-19 00:26 | 13.86298 | 102.70743 | 28885 ft | 322 kts | 88° |
| 2026-04-19 00:27 | 13.86215 | 102.75292 | 28887 ft | 322 kts | 88° |
| 2026-04-19 00:27 | 13.86128 | 102.79842 | 28888 ft | 322 kts | 88° |
| 2026-04-19 00:28 | 13.86038 | 102.84364 | 28882 ft | 322 kts | 88° |
| 2026-04-19 00:28 | 13.85954 | 102.88893 | 28889 ft | 322 kts | 88° |
| 2026-04-19 00:29 | 13.85862 | 102.93461 | 28887 ft | 322 kts | 88° |
| 2026-04-19 00:29 | 13.85773 | 102.97963 | 28887 ft | 322 kts | 88° |
| 2026-04-19 00:30 | 13.85684 | 103.02510 | 28887 ft | 322 kts | 88° |
| 2026-04-19 00:30 | 13.85589 | 103.07055 | 28885 ft | 322 kts | 88° |
| 2026-04-19 00:31 | 13.85502 | 103.11457 | 28886 ft | 321 kts | 88° |
| 2026-04-19 00:31 | 13.85410 | 103.15976 | 28884 ft | 322 kts | 88° |
| 2026-04-19 00:32 | 13.85312 | 103.20526 | 28886 ft | 322 kts | 88° |
| 2026-04-19 00:32 | 13.85222 | 103.25036 | 28886 ft | 321 kts | 88° |
| 2026-04-19 00:33 | 13.85125 | 103.29543 | 28886 ft | 321 kts | 89° |
| 2026-04-19 00:33 | 13.85028 | 103.34037 | 28886 ft | 321 kts | 88° |
| 2026-04-19 00:34 | 13.84889 | 103.40606 | 28888 ft | 321 kts | 89° |
| 2026-04-19 00:34 | 13.84784 | 103.45266 | 28885 ft | 321 kts | 89° |
| 2026-04-19 00:35 | 13.84699 | 103.49349 | 28889 ft | 321 kts | 88° |
| 2026-04-19 00:35 | 13.84599 | 103.53800 | 28891 ft | 322 kts | 89° |
| 2026-04-19 00:36 | 13.84496 | 103.58352 | 28889 ft | 322 kts | 89° |
| 2026-04-19 00:36 | 13.84399 | 103.62853 | 28886 ft | 322 kts | 89° |
| 2026-04-19 00:37 | 13.84310 | 103.66677 | 28888 ft | 322 kts | 89° |
| 2026-04-19 00:37 | 13.84189 | 103.72012 | 28893 ft | 322 kts | 89° |
| 2026-04-19 00:38 | 13.84102 | 103.75814 | 28894 ft | 322 kts | 89° |
| 2026-04-19 00:38 | 13.84001 | 103.80102 | 28894 ft | 322 kts | 89° |
| 2026-04-19 00:39 | 13.83895 | 103.84656 | 28896 ft | 322 kts | 89° |
| 2026-04-19 00:39 | 13.83790 | 103.89207 | 28899 ft | 322 kts | 89° |
| 2026-04-19 00:40 | 13.83679 | 103.93732 | 28897 ft | 322 kts | 89° |
| 2026-04-19 00:40 | 13.83573 | 103.98286 | 28906 ft | 322 kts | 89° |
| 2026-04-19 00:41 | 13.83464 | 104.02801 | 28902 ft | 322 kts | 89° |
| 2026-04-19 00:41 | 13.83353 | 104.07267 | 28905 ft | 322 kts | 89° |
| 2026-04-19 00:42 | 13.83249 | 104.11693 | 28905 ft | 322 kts | 89° |
| 2026-04-19 00:42 | 13.83138 | 104.16015 | 28904 ft | 322 kts | 89° |
| 2026-04-19 00:43 | 13.83028 | 104.20538 | 28907 ft | 322 kts | 89° |
| 2026-04-19 00:43 | 13.82921 | 104.24874 | 28904 ft | 322 kts | 89° |
| 2026-04-19 00:44 | 13.82802 | 104.29448 | 28906 ft | 322 kts | 89° |
| 2026-04-19 00:44 | 13.82690 | 104.33993 | 28904 ft | 322 kts | 89° |
| 2026-04-19 00:45 | 13.82574 | 104.38447 | 28907 ft | 323 kts | 89° |
| 2026-04-19 00:45 | 13.82453 | 104.43148 | 28907 ft | 323 kts | 89° |
| 2026-04-19 00:46 | 13.82340 | 104.47652 | 28908 ft | 323 kts | 89° |
| 2026-04-19 00:46 | 13.82218 | 104.52124 | 28906 ft | 323 kts | 89° |
| 2026-04-19 00:47 | 13.82097 | 104.56793 | 28908 ft | 323 kts | 89° |
| 2026-04-19 00:47 | 13.81978 | 104.61347 | 28910 ft | 323 kts | 89° |
| 2026-04-19 00:48 | 13.81849 | 104.66032 | 28910 ft | 323 kts | 89° |
| 2026-04-19 00:48 | 13.81731 | 104.70578 | 28910 ft | 323 kts | 89° |
| 2026-04-19 00:49 | 13.81608 | 104.75081 | 28914 ft | 323 kts | 89° |
| 2026-04-19 00:49 | 13.81482 | 104.79630 | 28912 ft | 323 kts | 89° |
| 2026-04-19 00:50 | 13.81363 | 104.84132 | 28912 ft | 323 kts | 89° |
| 2026-04-19 00:50 | 13.81236 | 104.88637 | 28912 ft | 323 kts | 89° |
| 2026-04-19 00:51 | 13.81110 | 104.93183 | 28914 ft | 323 kts | 89° |
| 2026-04-19 00:51 | 13.80988 | 104.97627 | 28917 ft | 323 kts | 89° |
| 2026-04-19 00:52 | 13.80857 | 105.02180 | 28914 ft | 323 kts | 89° |
| 2026-04-19 00:52 | 13.80729 | 105.06722 | 28917 ft | 323 kts | 89° |
| 2026-04-19 00:53 | 13.80600 | 105.11284 | 28916 ft | 323 kts | 89° |
| 2026-04-19 00:53 | 13.80469 | 105.15837 | 28915 ft | 323 kts | 89° |
| 2026-04-19 00:54 | 13.80337 | 105.20386 | 28916 ft | 323 kts | 89° |
| 2026-04-19 00:54 | 13.80208 | 105.24828 | 28919 ft | 323 kts | 89° |
| 2026-04-19 00:55 | 13.80074 | 105.29453 | 28917 ft | 323 kts | 89° |
| 2026-04-19 00:55 | 13.79937 | 105.34013 | 28920 ft | 323 kts | 89° |
| 2026-04-19 00:56 | 13.79510 | 105.38491 | 28654 ft | 332 kts | 102° |
| 2026-04-19 00:56 | 13.78761 | 105.40610 | 28248 ft | 340 kts | 113° |
| 2026-04-19 00:56 | 13.77520 | 105.42786 | 27794 ft | 341 kts | 124° |
| 2026-04-19 00:57 | 13.76003 | 105.44589 | 27361 ft | 343 kts | 134° |
| 2026-04-19 00:57 | 13.74142 | 105.46131 | 26908 ft | 344 kts | 145° |
| 2026-04-19 00:57 | 13.72138 | 105.47282 | 26470 ft | 344 kts | 153° |
| 2026-04-19 00:57 | 13.69988 | 105.48370 | 26021 ft | 344 kts | 153° |
| 2026-04-19 00:58 | 13.67926 | 105.49474 | 25578 ft | 343 kts | 150° |
| 2026-04-19 00:58 | 13.65841 | 105.50674 | 25127 ft | 342 kts | 149° |
| 2026-04-19 00:58 | 13.63828 | 105.51840 | 24689 ft | 341 kts | 150° |
| 2026-04-19 00:58 | 13.61740 | 105.52993 | 24242 ft | 340 kts | 152° |
| 2026-04-19 00:59 | 13.59705 | 105.54066 | 23807 ft | 338 kts | 152° |
| 2026-04-19 00:59 | 13.58322 | 105.54791 | 23511 ft | 335 kts | 152° |
| 2026-04-19 00:59 | 13.55763 | 105.56169 | 22914 ft | 325 kts | 151° |
| 2026-04-19 00:59 | 13.53793 | 105.57263 | 22487 ft | 319 kts | 151° |
| 2026-04-19 01:00 | 13.52164 | 105.58170 | 22133 ft | 314 kts | 151° |
| 2026-04-19 01:00 | 13.50246 | 105.59220 | 21727 ft | 310 kts | 152° |
| 2026-04-19 01:00 | 13.48607 | 105.60101 | 21374 ft | 308 kts | 152° |
| 2026-04-19 01:00 | 13.46710 | 105.61118 | 20969 ft | 305 kts | 152° |
| 2026-04-19 01:01 | 13.45446 | 105.61803 | 20700 ft | 304 kts | 152° |
| 2026-04-19 01:01 | 13.43651 | 105.62786 | 20314 ft | 302 kts | 151° |
| 2026-04-19 01:01 | 13.41802 | 105.63802 | 19916 ft | 300 kts | 151° |
| 2026-04-19 01:01 | 13.40006 | 105.64781 | 19527 ft | 298 kts | 152° |
| 2026-04-19 01:02 | 13.38153 | 105.65783 | 19130 ft | 296 kts | 152° |
| 2026-04-19 01:02 | 13.36387 | 105.66738 | 18752 ft | 294 kts | 152° |
| 2026-04-19 01:02 | 13.34581 | 105.67718 | 18368 ft | 292 kts | 152° |
| 2026-04-19 01:02 | 13.32835 | 105.68669 | 17964 ft | 290 kts | 151° |
| 2026-04-19 01:03 | 13.31064 | 105.69636 | 17571 ft | 287 kts | 151° |
| 2026-04-19 01:03 | 13.29564 | 105.70453 | 17249 ft | 284 kts | 152° |
| 2026-04-19 01:03 | 13.27819 | 105.71399 | 16877 ft | 282 kts | 152° |
| 2026-04-19 01:03 | 13.26134 | 105.72311 | 16517 ft | 280 kts | 152° |
| 2026-04-19 01:04 | 13.24429 | 105.73235 | 16155 ft | 278 kts | 152° |
| 2026-04-19 01:04 | 13.22762 | 105.74142 | 15800 ft | 277 kts | 152° |
| 2026-04-19 01:04 | 13.21060 | 105.75068 | 15434 ft | 275 kts | 152° |
| 2026-04-19 01:04 | 13.19416 | 105.75962 | 15084 ft | 274 kts | 152° |
| 2026-04-19 01:05 | 13.17739 | 105.76871 | 14732 ft | 272 kts | 152° |
| 2026-04-19 01:05 | 13.16111 | 105.77753 | 14378 ft | 271 kts | 152° |
| 2026-04-19 01:05 | 13.14444 | 105.78656 | 14022 ft | 270 kts | 152° |
| 2026-04-19 01:05 | 13.12789 | 105.79554 | 13658 ft | 269 kts | 152° |
| 2026-04-19 01:06 | 13.11159 | 105.80440 | 13287 ft | 266 kts | 152° |
| 2026-04-19 01:06 | 13.09578 | 105.81294 | 12936 ft | 264 kts | 151° |
| 2026-04-19 01:06 | 13.07952 | 105.82172 | 12594 ft | 262 kts | 151° |
| 2026-04-19 01:06 | 13.06368 | 105.83031 | 12254 ft | 260 kts | 151° |
| 2026-04-19 01:07 | 13.04777 | 105.83895 | 11907 ft | 258 kts | 151° |
| 2026-04-19 01:07 | 13.03225 | 105.84738 | 11578 ft | 256 kts | 150° |
| 2026-04-19 01:07 | 13.01655 | 105.85589 | 11236 ft | 254 kts | 150° |
| 2026-04-19 01:07 | 13.00120 | 105.86420 | 10914 ft | 253 kts | 150° |
| 2026-04-19 01:08 | 12.98567 | 105.87260 | 10581 ft | 251 kts | 150° |
| 2026-04-19 01:08 | 12.97066 | 105.88074 | 10279 ft | 249 kts | 150° |
| 2026-04-19 01:08 | 12.95545 | 105.88898 | 10002 ft | 245 kts | 150° |
| 2026-04-19 01:08 | 12.94159 | 105.89647 | 9705 ft | 228 kts | 149° |
| 2026-04-19 01:09 | 12.92792 | 105.90388 | 9407 ft | 217 kts | 149° |
| 2026-04-19 01:09 | 12.91511 | 105.91083 | 9136 ft | 211 kts | 149° |
| 2026-04-19 01:09 | 12.90226 | 105.91781 | 8864 ft | 207 kts | 149° |
| 2026-04-19 01:09 | 12.88992 | 105.92449 | 8607 ft | 205 kts | 149° |
| 2026-04-19 01:10 | 12.87737 | 105.93129 | 8340 ft | 204 kts | 149° |
| 2026-04-19 01:10 | 12.86514 | 105.93791 | 8080 ft | 203 kts | 150° |
| 2026-04-19 01:10 | 12.85331 | 105.94430 | 7822 ft | 202 kts | 150° |
| 2026-04-19 01:10 | 12.84117 | 105.95086 | 7564 ft | 202 kts | 150° |
| 2026-04-19 01:11 | 12.82840 | 105.95777 | 7290 ft | 201 kts | 150° |
| 2026-04-19 01:11 | 12.81663 | 105.96415 | 7043 ft | 200 kts | 150° |
| 2026-04-19 01:11 | 12.80478 | 105.97058 | 6799 ft | 195 kts | 150° |
| 2026-04-19 01:11 | 12.79252 | 105.97720 | 6529 ft | 192 kts | 151° |
| 2026-04-19 01:12 | 12.78128 | 105.98326 | 6280 ft | 191 kts | 151° |
| 2026-04-19 01:12 | 12.76937 | 105.98971 | 6028 ft | 189 kts | 151° |
| 2026-04-19 01:12 | 12.75803 | 105.99584 | 5774 ft | 187 kts | 151° |
| 2026-04-19 01:12 | 12.74655 | 106.00205 | 5525 ft | 186 kts | 152° |
| 2026-04-19 01:13 | 12.73542 | 106.00808 | 5286 ft | 185 kts | 152° |
| 2026-04-19 01:13 | 12.72408 | 106.01421 | 5042 ft | 184 kts | 152° |
| 2026-04-19 01:13 | 12.71424 | 106.01953 | 4833 ft | 183 kts | 153° |
| 2026-04-19 01:13 | 12.70296 | 106.02563 | 4581 ft | 182 kts | 153° |
| 2026-04-19 01:14 | 12.69207 | 106.03151 | 4342 ft | 180 kts | 154° |
| 2026-04-19 01:14 | 12.68104 | 106.03748 | 4106 ft | 178 kts | 154° |
| 2026-04-19 01:14 | 12.67033 | 106.04325 | 3873 ft | 178 kts | 155° |
| 2026-04-19 01:14 | 12.65942 | 106.04912 | 3636 ft | 177 kts | 155° |
| 2026-04-19 01:15 | 12.64888 | 106.05478 | 3412 ft | 175 kts | 154° |
| 2026-04-19 01:15 | 12.63796 | 106.06070 | 3170 ft | 174 kts | 154° |
| 2026-04-19 01:15 | 12.62770 | 106.06625 | 2948 ft | 173 kts | 155° |
| 2026-04-19 01:15 | 12.61697 | 106.07202 | 2714 ft | 172 kts | 155° |
| 2026-04-19 01:16 | 12.60705 | 106.07741 | 2520 ft | 141 kts | 154° |
| 2026-04-19 01:16 | 12.59945 | 106.08155 | 2359 ft | 115 kts | 155° |
| 2026-04-19 01:16 | 12.59348 | 106.08476 | 2230 ft | 105 kts | 156° |
| 2026-04-19 01:16 | 12.58712 | 106.08818 | 2098 ft | 102 kts | 156° |
| 2026-04-19 01:17 | 12.58106 | 106.09143 | 1971 ft | 101 kts | 156° |
| 2026-04-19 01:17 | 12.57488 | 106.09475 | 1837 ft | 100 kts | 155° |
| 2026-04-19 01:17 | 12.56862 | 106.09674 | 1714 ft | 96 kts | 178° |
| 2026-04-19 01:17 | 12.56208 | 106.09545 | 1586 ft | 97 kts | 202° |
| 2026-04-19 01:18 | 12.55628 | 106.09203 | 1458 ft | 100 kts | 206° |
| 2026-04-19 01:18 | 12.55022 | 106.08855 | 1326 ft | 100 kts | 205° |
| 2026-04-19 01:18 | 12.54436 | 106.08532 | 1214 ft | 103 kts | 205° |
| 2026-04-19 01:18 | 12.53780 | 106.08170 | 1067 ft | 105 kts | 204° |
| 2026-04-19 01:19 | 12.53186 | 106.07841 | 943 ft | 104 kts | 205° |
| 2026-04-19 01:19 | 12.52587 | 106.07507 | 864 ft | 99 kts | 205° |
| 2026-04-19 01:19 | 12.52056 | 106.07217 | 641 ft | 106 kts | 206° |
| 2026-04-19 01:19 | 12.51408 | 106.06861 | 478 ft | 106 kts | 205° |
| 2026-04-19 01:20 | 12.50783 | 106.06517 | 336 ft | 104 kts | 207° |
| 2026-04-19 01:20 | 12.50167 | 106.06185 | 249 ft | 100 kts | 207° |
| 2026-04-19 01:20 | 12.49622 | 106.05925 | 188 ft | 75 kts | 206° |
| 2026-04-19 01:20 | 12.49407 | 106.05781 | 107 ft | 0 kts | 218° |